Flight Track Log - Related Links

Times and Time Zones

All times are in EDT time to prevent confusion due to time zone crossing. See the SKW6281 flight status page for this flight to view local times or setup timezone preferences in your user account.

Time Position Orientation Groundspeed Altitude Reporting Facility
EDT Latitude Longitude Course Direction KTS MPH feet Rate Location/Type
Sat 02:11:50 PM 39.8333 -104.7667 244° Southwest 212 244 6,300  Level Denver TRACON
Sat 02:12:50 PM 39.8167 -104.8333 252° West 241 277 8,400 2,200 Climbing Denver TRACON
Sat 02:13:50 PM 39.8000 -104.9333 258° West 288 331 10,700 2,122 Climbing Denver TRACON
Sat 02:14:00 PM 39.7279 -105.0497 247° West  Level FlightAware Approximate
Sat 02:14:12 PM 39.7822 -104.9711 239° Southwest 279 321 11,300  Level Denver Center
Sat 02:15:00 PM 39.6856 -105.1767 247° West  Level FlightAware Approximate
Sat 02:15:13 PM 39.7478 -105.0789 247° West 319 367 13,100  Level Denver Center
Sat 02:16:00 PM 39.6519 -105.3074 255° West  Level FlightAware Approximate
Sat 02:16:15 PM 39.7078 -105.1894 245° Southwest 337 388 15,100  Level Denver Center
Sat 02:17:00 PM 39.6071 -105.4285 244° Southwest  Level FlightAware Approximate
Sat 02:17:17 PM 39.6644 -105.3114 245° Southwest 347 399 17,100  Level Denver Center
Sat 02:18:18 PM 39.6222 -105.4253 244° Southwest 353 406 18,600 1,512 Climbing Denver Center
Sat 02:19:20 PM 39.5761 -105.5508 245° Southwest 355 409 20,200 1,161 Climbing Denver Center
Sat 02:20:22 PM 39.5358 -105.6708 247° West 365 420 21,000 780 Climbing Denver Center
Sat 02:21:23 PM 39.5061 -105.7775 250° West 374 430 21,800 1,122 Climbing Denver Center
Sat 02:22:25 PM 39.4658 -105.9347 252° West 372 428 23,300 1,258 Climbing Denver Center
Sat 02:23:27 PM 39.4283 -106.0656 250° West 382 440 24,400 927 Climbing Denver Center
Sat 02:24:28 PM 39.3947 -106.1872 250° West 388 447 25,200 878 Climbing Denver Center
Sat 02:25:30 PM 39.3528 -106.3353 250° West 392 451 26,200 823 Climbing Denver Center
Sat 02:26:32 PM 39.3158 -106.4642 250° West 397 457 26,900 927 Climbing Denver Center
Sat 02:27:33 PM 39.2722 -106.6161 250° West 404 465 28,100 1,024 Climbing Denver Center
Sat 02:28:35 PM 39.2336 -106.7428 249° West 396 456 29,000 927 Climbing Denver Center
Sat 02:29:36 PM 39.1783 -106.8833 243° Southwest 393 452 30,000 634 Climbing Denver Center
Sat 02:30:38 PM 39.1314 -107.0025 243° Southwest 391 450 30,300 484 Climbing Denver Center
Sat 02:31:40 PM 39.0825 -107.1247 243° Southwest 396 456 31,000 581 Climbing Denver Center
Sat 02:32:42 PM 39.0283 -107.2658 244° Southwest 396 456 31,500 488 Climbing Denver Center
Sat 02:33:43 PM 38.9792 -107.3850 242° Southwest 395 455 32,000 244 Climbing Denver Center
Sat 02:34:45 PM 38.9214 -107.5286 243° Southwest 405 466 32,000  Level Denver Center
Sat 02:35:46 PM 38.8711 -107.6539 243° Southwest 410 472 32,000  Level Denver Center
Sat 02:36:48 PM 38.8194 -107.7831 243° Southwest 420 483 32,000  Level Denver Center
Sat 02:37:50 PM 38.7586 -107.9328 243° Southwest 423 487 32,000  Level Denver Center
Sat 02:38:51 PM 38.7064 -108.0636 243° Southwest 428 493 32,000  Level Denver Center
Sat 02:39:53 PM 38.6453 -108.2133 242° Southwest 425 489 32,000  Level Denver Center
Sat 02:40:55 PM 38.5922 -108.3431 242° Southwest 429 494 32,000  Level Denver Center
Sat 02:41:56 PM 38.5392 -108.4714 242° Southwest 428 493 32,000  Level Denver Center
Sat 02:42:58 PM 38.4764 -108.6225 242° Southwest 429 494 32,000  Level Denver Center
Sat 02:43:59 PM 38.4233 -108.7528 243° Southwest 431 496 32,000  Level Denver Center
Sat 02:45:01 PM 38.3597 -108.9028 242° Southwest 430 495 32,000  Level Denver Center
Sat 02:46:03 PM 38.3058 -109.0325 242° Southwest 430 495 32,000  Level Denver Center
Sat 02:47:04 PM 38.2419 -109.1833 242° Southwest 433 498 32,000  Level Denver Center
Sat 02:48:06 PM 38.1869 -109.3086 241° Southwest 426 490 32,000  Level Denver Center
Sat 02:49:07 PM 38.1325 -109.4383 242° Southwest 432 497 32,000  Level Denver Center
Sat 02:50:09 PM 38.0689 -109.5875 242° Southwest 432 497 32,000  Level Denver Center
Sat 02:51:10 PM 38.0131 -109.7206 242° Southwest 430 495 32,000  Level Denver Center
Sat 02:52:12 PM 37.9583 -109.8464 241° Southwest 426 490 32,000  Level Denver Center
Sat 02:53:14 PM 37.8950 -109.9928 241° Southwest 425 489 32,000  Level Denver Center
Sat 02:54:15 PM 37.8394 -110.1178 241° Southwest 426 490 32,000  Level Denver Center
Sat 02:55:17 PM 37.7772 -110.2617 241° Southwest 420 483 32,000  Level Denver Center
Sat 02:56:18 PM 37.7233 -110.3853 241° Southwest 419 482 32,000  Level Denver Center
Sat 02:57:20 PM 37.6611 -110.5278 241° Southwest 417 480 32,000  Level Denver Center
Sat 02:58:21 PM 37.6125 -110.6375 241° Southwest 416 479 32,000 49 Level Denver Center
Sat 02:59:23 PM 37.5678 -110.7394 241° Southwest 415 478 32,100  Climbing Denver Center
Sat 03:00:27 PM 37.4897 -110.9153 241° Southwest 412 474 32,000 -44 Descending Denver Center
Sat 03:01:40 PM 37.4236 -111.0647 241° Southwest 408 470 32,000  Level Denver Center
Sat 03:02:54 PM 37.3658 -111.1881 240° Southwest 410 472 32,000  Level Denver Center
Sat 03:03:56 PM 37.3006 -111.3353 241° Southwest 403 464 32,000  Level Denver Center
Sat 03:04:57 PM 37.2444 -111.4589 240° Southwest 406 467 32,000  Level Denver Center
Sat 03:05:59 PM 37.1892 -111.5831 241° Southwest 406 467 32,000  Level Denver Center
Sat 03:07:00 PM 37.1350 -111.7019 240° Southwest 397 457 32,000  Level Denver Center
Sat 03:08:02 PM 37.0703 -111.8475 241° Southwest 396 456 32,000  Level Denver Center
Sat 03:09:04 PM 37.0119 -111.9700 239° Southwest 404 465 32,000  Level Denver Center
Sat 03:10:05 PM 36.9550 -112.0917 240° Southwest 405 466 32,000  Level Denver Center
Sat 03:10:58 PM 36.9092 -112.1900 240° Southwest 405 466 32,000  Level Los Angeles Center
Sat 03:12:00 PM 36.8522 -112.3117 240° Southwest 405 466 32,000  Level Los Angeles Center
Sat 03:13:02 PM 36.7839 -112.4581 240° Southwest 406 467 32,000  Level Los Angeles Center
Sat 03:14:03 PM 36.7253 -112.5811 239° Southwest 410 472 32,000  Level Los Angeles Center
Sat 03:15:05 PM 36.6678 -112.7036 240° Southwest 409 471 32,000  Level Los Angeles Center
Sat 03:16:07 PM 36.6108 -112.8250 240° Southwest 406 467 32,000  Level Los Angeles Center
Sat 03:17:09 PM 36.5528 -112.9469 239° Southwest 408 470 32,000  Level Los Angeles Center
Sat 03:18:10 PM 36.4953 -113.0675 239° Southwest 406 467 32,000  Level Los Angeles Center
Sat 03:19:12 PM 36.4392 -113.1875 240° Southwest 403 464 32,000  Level Los Angeles Center
Sat 03:20:14 PM 36.3736 -113.3225 239° Southwest 404 465 32,000  Level Los Angeles Center
Sat 03:21:16 PM 36.3172 -113.4425 240° Southwest 405 466 32,000  Level Los Angeles Center
Sat 03:22:17 PM 36.2586 -113.5631 239° Southwest 406 467 32,000  Level Los Angeles Center
Sat 03:23:19 PM 36.2008 -113.6839 239° Southwest 406 467 32,000  Level Los Angeles Center
Sat 03:24:21 PM 36.1411 -113.8053 239° Southwest 411 473 32,000  Level Los Angeles Center
Sat 03:25:22 PM 36.0822 -113.9264 239° Southwest 411 473 32,000  Level Los Angeles Center
Sat 03:26:24 PM 36.0117 -114.0708 239° Southwest 409 471 32,000  Level Los Angeles Center
Sat 03:27:26 PM 35.9519 -114.1903 238° Southwest 408 470 32,000  Level Los Angeles Center
Sat 03:28:28 PM 35.8933 -114.3106 239° Southwest 408 470 32,000  Level Los Angeles Center
Sat 03:29:30 PM 35.8333 -114.4314 239° Southwest 411 473 32,000  Level Los Angeles Center
Sat 03:30:31 PM 35.7744 -114.5519 239° Southwest 410 472 32,000  Level Los Angeles Center
Sat 03:31:33 PM 35.7144 -114.6725 239° Southwest 411 473 32,000  Level Los Angeles Center
Sat 03:32:35 PM 35.6536 -114.7911 238° Southwest 409 471 32,000  Level Los Angeles Center
Sat 03:33:37 PM 35.5944 -114.9128 239° Southwest 411 473 32,000  Level Los Angeles Center
Sat 03:34:38 PM 35.5225 -115.0567 238° Southwest 411 473 32,000  Level Los Angeles Center
Sat 03:35:40 PM 35.4617 -115.1767 238° Southwest 412 474 32,000 -97 Level Los Angeles Center
Sat 03:36:42 PM 35.4003 -115.2950 238° Southwest 411 473 31,800 -581 Descending Los Angeles Center
Sat 03:37:44 PM 35.3378 -115.4144 237° Southwest 413 475 30,800 -968 Descending Los Angeles Center
Sat 03:38:46 PM 35.2725 -115.5417 238° Southwest 429 494 29,800 -1,016 Descending Los Angeles Center
Sat 03:39:48 PM 35.2031 -115.6842 239° Southwest 447 514 28,700 -919 Descending Los Angeles Center
Sat 03:40:50 PM 35.1358 -115.8125 237° Southwest 448 516 27,900 -871 Descending Los Angeles Center
Sat 03:41:52 PM 35.0725 -115.9378 238° Southwest 438 504 26,900 -968 Descending Los Angeles Center
Sat 03:42:54 PM 35.0069 -116.0628 237° Southwest 436 502 25,900 -968 Descending Los Angeles Center
Sat 03:43:56 PM 34.9406 -116.1850 236° Southwest 434 499 24,900 -919 Descending Los Angeles Center
Sat 03:44:58 PM 34.8750 -116.3108 238° Southwest 437 503 24,000 -435 Descending Los Angeles Center
Sat 03:46:00 PM 34.7983 -116.4589 238° Southwest 435 501 24,000  Level Los Angeles Center
Sat 03:47:02 PM 34.7128 -116.5678 226° Southwest 439 505 24,000 -677 Level Los Angeles Center
Sat 03:48:04 PM 34.6228 -116.6744 224° Southwest 448 516 22,600 -2,081 Descending Los Angeles Center
Sat 03:49:06 PM 34.5383 -116.7792 226° Southwest 438 504 19,700 -2,806 Descending Los Angeles Center
Sat 03:50:08 PM 34.4578 -116.8786 226° Southwest 420 483 16,800 -2,903 Descending Los Angeles Center
Sat 03:51:10 PM 34.3786 -116.9747 225° Southwest 406 467 13,700 -2,758 Descending Los Angeles Center
Sat 03:52:12 PM 34.2850 -117.0881 225° Southwest 399 459 11,100 -1,694 Descending Los Angeles Center
Sat 03:53:14 PM 34.2139 -117.1764 226° Southwest 384 442 10,200 -726 Descending Los Angeles Center
Sat 03:54:16 PM 34.1311 -117.2222 205° Southwest 322 371 9,600 -1,232 Descending Los Angeles Center
Sat 03:55:06 PM 34.0667 -117.2667 210° Southwest 297 342 7,900 -1,527 Descending Southern California TRACON
Sat 03:56:06 PM 34.0500 -117.3500 256° West 259 298 6,800 -950 Descending Southern California TRACON
Sat 03:57:06 PM 34.0500 -117.4167 270° West 202 232 6,000 -1,632 Descending Southern California TRACON
Sat 03:58:00 PM 34.0500 -117.4833 270° West 193 222 3,700 -2,556 Descending Southern California TRACON

Login

Don't have an account? Register now (free) for customized features, flight alerts, and more!